createdAt,value
2023-02-14T00:01:06.575Z,23.15
2023-02-14T00:06:14.550Z,22.27
2023-02-14T00:08:44.730Z,20.92
2023-02-14T00:11:12.751Z,20.92
2023-02-14T00:13:39.674Z,22.63
2023-02-14T00:16:06.778Z,26.58
2023-02-14T00:18:52.066Z,21.98
2023-02-14T00:21:18.966Z,19.50
2023-02-14T00:23:45.791Z,20.15
2023-02-14T00:26:16.127Z,22.58
2023-02-14T00:28:43.140Z,21.40
2023-02-14T00:31:10.146Z,21.17
2023-02-14T00:33:37.198Z,24.38
2023-02-14T00:36:07.038Z,21.95
2023-02-14T00:38:34.713Z,17.10
2023-02-14T00:41:02.153Z,21.05
2023-02-14T00:43:29.054Z,21.05
2023-02-14T00:45:59.387Z,18.45
2023-02-14T00:48:26.335Z,23.33
2023-02-14T00:50:53.168Z,24.13
2023-02-14T00:53:19.976Z,23.25
2023-02-14T00:55:49.399Z,22.40
2023-02-14T00:58:16.197Z,17.90
2023-02-14T01:00:43.021Z,20.55
2023-02-14T01:03:09.991Z,20.55
2023-02-14T01:05:36.800Z,24.20
2023-02-14T01:08:03.855Z,22.77
2023-02-14T01:10:31.120Z,28.75
2023-02-14T01:12:57.984Z,30.27
2023-02-14T01:15:24.798Z,22.05
2023-02-14T01:17:51.589Z,21.73
2023-02-14T01:20:18.575Z,21.98
2023-02-14T01:22:45.337Z,22.08
2023-02-14T01:25:12.260Z,20.50
2023-02-14T01:27:39.132Z,24.40
2023-02-14T01:30:06.810Z,21.13
2023-02-14T01:32:33.812Z,29.30
2023-02-14T01:35:00.688Z,30.33
2023-02-14T01:37:28.122Z,28.92
2023-02-14T01:39:54.930Z,28.17
2023-02-14T01:42:22.106Z,22.80
2023-02-14T01:45:06.414Z,25.67
2023-02-14T01:47:41.073Z,25.25
2023-02-14T01:50:12.182Z,22.80
2023-02-14T01:52:44.703Z,23.10
2023-02-14T01:55:16.943Z,21.23
2023-02-14T01:57:55.514Z,24.80
2023-02-14T02:00:41.262Z,23.30
2023-02-14T02:03:09.099Z,24.23
2023-02-14T02:05:40.687Z,25.77
2023-02-14T02:08:07.621Z,25.23
2023-02-14T02:10:34.443Z,20.85
2023-02-14T02:13:06.565Z,20.70
2023-02-14T02:15:48.041Z,24.55
2023-02-14T02:18:44.372Z,21.30
2023-02-14T02:21:59.145Z,27.13
2023-02-14T02:24:58.293Z,23.15
2023-02-14T02:27:49.660Z,23.83
2023-02-14T02:30:51.107Z,22.38
2023-02-14T02:33:27.100Z,18.67
2023-02-14T02:36:18.710Z,21.70
2023-02-14T02:39:00.220Z,22.23
2023-02-14T02:41:55.009Z,27.23
2023-02-14T02:44:35.077Z,23.80
2023-02-14T02:47:11.724Z,18.55
2023-02-14T02:50:03.224Z,23.13
2023-02-14T02:53:04.179Z,23.35
2023-02-14T02:55:56.331Z,24.98
2023-02-14T02:58:27.248Z,26.92
2023-02-14T03:00:56.207Z,19.25
2023-02-14T03:03:45.025Z,21.77
2023-02-14T03:06:11.812Z,27.27
2023-02-14T03:08:38.608Z,16.85
2023-02-14T03:11:05.926Z,24.30
2023-02-14T03:14:20.486Z,26.48
2023-02-14T03:17:08.282Z,23.70
2023-02-14T03:20:14.035Z,18.48
2023-02-14T03:22:44.253Z,18.48
2023-02-14T03:25:16.888Z,23.75
2023-02-14T03:28:28.460Z,15.20
2023-02-14T03:31:10.721Z,22.02
2023-02-14T03:34:15.930Z,20.85
2023-02-14T03:39:27.628Z,26.23
2023-02-14T03:42:06.196Z,23.15
2023-02-14T03:44:35.733Z,23.10
2023-02-14T03:47:10.750Z,28.10
2023-02-14T03:49:44.949Z,19.05
2023-02-14T03:54:39.764Z,20.52
2023-02-14T03:57:24.791Z,25.05
2023-02-14T03:59:52.266Z,24.77
2023-02-14T04:02:28.216Z,25.02
2023-02-14T04:04:56.988Z,22.40
2023-02-14T04:07:24.156Z,21.00
2023-02-14T04:09:51.312Z,22.88
2023-02-14T04:12:26.702Z,24.00
2023-02-14T04:14:59.365Z,19.98
2023-02-14T04:17:44.857Z,21.20
2023-02-14T04:20:11.865Z,16.13
2023-02-14T04:22:38.695Z,23.27
2023-02-14T04:25:05.761Z,20.80
2023-02-14T04:27:32.576Z,24.65
2023-02-14T04:29:59.449Z,19.60
2023-02-14T04:32:26.432Z,20.52
2023-02-14T04:34:53.610Z,17.88
2023-02-14T04:37:20.646Z,22.77
2023-02-14T04:39:47.482Z,23.92
2023-02-14T04:42:14.948Z,23.55
2023-02-14T04:44:42.327Z,15.65
2023-02-14T04:47:09.397Z,22.02
2023-02-14T04:49:36.533Z,23.98
2023-02-14T04:52:04.675Z,23.95
2023-02-14T04:54:31.681Z,18.95
2023-02-14T04:56:58.577Z,32.17
2023-02-14T04:59:26.146Z,17.50
2023-02-14T05:01:53.651Z,15.05
2023-02-14T05:04:20.815Z,23.45
2023-02-14T05:06:47.734Z,19.42
2023-02-14T05:09:14.616Z,20.42
2023-02-14T05:11:41.798Z,24.45
2023-02-14T05:14:09.298Z,21.10
2023-02-14T05:16:36.145Z,16.35
2023-02-14T05:19:02.972Z,21.92
2023-02-14T05:21:33.082Z,19.70
2023-02-14T05:24:00.869Z,20.73
2023-02-14T05:26:28.218Z,21.25
2023-02-14T05:28:55.191Z,18.90
2023-02-14T05:31:22.655Z,18.60
2023-02-14T05:33:49.602Z,15.85
2023-02-14T05:36:16.453Z,18.33
2023-02-14T05:38:44.755Z,17.38
2023-02-14T05:41:11.746Z,21.40
2023-02-14T05:43:38.711Z,19.20
2023-02-14T05:46:06.221Z,20.77
2023-02-14T05:48:33.782Z,17.85
2023-02-14T05:51:09.175Z,22.27
2023-02-14T05:53:36.234Z,18.30
2023-02-14T05:56:03.233Z,22.83
2023-02-14T05:58:30.395Z,25.55
2023-02-14T06:00:58.325Z,18.48
2023-02-14T06:03:25.979Z,15.75
2023-02-14T06:05:52.854Z,25.20
2023-02-14T06:08:19.870Z,18.35
2023-02-14T06:10:46.864Z,21.67
2023-02-14T06:13:13.741Z,22.85
2023-02-14T06:15:40.713Z,21.50
2023-02-14T06:18:07.854Z,21.92
2023-02-14T06:20:34.950Z,19.95
2023-02-14T06:23:02.157Z,23.83
2023-02-14T06:25:29.065Z,19.27
2023-02-14T06:27:57.285Z,21.02
2023-02-14T06:30:24.911Z,26.13
2023-02-14T06:32:51.973Z,20.52
2023-02-14T06:35:19.023Z,19.35
2023-02-14T06:37:45.865Z,23.88
2023-02-14T06:40:13.928Z,20.65
2023-02-14T06:42:40.731Z,16.80
2023-02-14T06:45:08.015Z,20.25
2023-02-14T06:47:35.305Z,18.52
2023-02-14T06:50:05.011Z,23.70
2023-02-14T06:52:33.128Z,15.25
2023-02-14T06:55:00.046Z,23.65
2023-02-14T06:57:27.045Z,18.33
2023-02-14T06:59:53.902Z,19.65
2023-02-14T07:02:23.563Z,18.02
2023-02-14T07:04:51.593Z,20.00
2023-02-14T07:07:18.478Z,18.25
2023-02-14T07:09:45.348Z,21.27
2023-02-14T07:12:12.163Z,21.00
2023-02-14T07:14:38.985Z,17.10
2023-02-14T07:17:06.029Z,15.45
2023-02-14T07:19:32.996Z,18.80
2023-02-14T07:22:00.026Z,27.23
2023-02-14T07:24:26.949Z,19.52
2023-02-14T07:26:53.752Z,22.52
2023-02-14T07:29:20.590Z,22.83
2023-02-14T07:31:47.572Z,21.13
2023-02-14T07:34:14.588Z,25.15
2023-02-14T07:36:41.498Z,18.50
2023-02-14T07:39:08.404Z,15.02
2023-02-14T07:41:35.268Z,18.65
2023-02-14T07:44:02.263Z,18.42
2023-02-14T07:46:29.289Z,19.45
2023-02-14T07:48:56.222Z,19.52
2023-02-14T07:51:23.082Z,25.00
2023-02-14T07:53:49.915Z,18.40
2023-02-14T07:56:16.861Z,24.05
2023-02-14T07:58:43.938Z,21.95
2023-02-14T08:01:10.833Z,16.52
2023-02-14T08:03:37.907Z,20.45
2023-02-14T08:06:04.954Z,18.52
2023-02-14T08:08:32.786Z,21.63
2023-02-14T08:10:59.979Z,19.17
2023-02-14T08:13:27.389Z,16.60
2023-02-14T08:16:07.697Z,20.30
2023-02-14T08:18:40.332Z,21.58
2023-02-14T08:21:10.222Z,21.95
2023-02-14T08:23:38.214Z,27.25
2023-02-14T08:26:05.308Z,26.25
2023-02-14T08:28:33.369Z,30.83
2023-02-14T08:31:00.780Z,19.90
2023-02-14T08:33:27.903Z,19.33
2023-02-14T08:35:54.802Z,20.05
2023-02-14T08:38:22.048Z,21.83
2023-02-14T08:40:49.152Z,26.67
2023-02-14T08:43:16.110Z,30.35
2023-02-14T08:45:43.202Z,26.80
2023-02-14T08:48:12.152Z,21.38
2023-02-14T08:50:39.827Z,28.40
2023-02-14T08:53:08.915Z,19.58
2023-02-14T08:55:36.257Z,20.58
2023-02-14T08:58:04.077Z,23.60
2023-02-14T09:00:32.202Z,28.60
2023-02-14T09:02:59.318Z,17.33
2023-02-14T09:05:26.824Z,18.95
2023-02-14T09:07:56.392Z,27.05
2023-02-14T09:10:24.540Z,23.77
2023-02-14T09:12:52.005Z,19.55
2023-02-14T09:15:19.053Z,24.15
2023-02-14T09:17:46.450Z,22.92
2023-02-14T09:20:15.086Z,24.35
2023-02-14T09:22:42.096Z,27.27
2023-02-14T09:25:09.134Z,20.88
2023-02-14T09:27:35.973Z,21.60
2023-02-14T09:30:03.215Z,29.23
2023-02-14T09:32:30.208Z,29.73
2023-02-14T09:34:57.205Z,23.42
2023-02-14T09:37:42.614Z,21.42
2023-02-14T09:40:12.637Z,22.73
2023-02-14T09:42:56.626Z,25.23
2023-02-14T09:45:29.098Z,21.17
2023-02-14T09:48:15.161Z,31.05
2023-02-14T09:51:17.786Z,23.98
2023-02-14T09:53:50.115Z,23.95
2023-02-14T09:56:23.495Z,25.75
2023-02-14T09:59:02.478Z,23.50
2023-02-14T10:01:40.916Z,29.20
2023-02-14T10:04:17.002Z,32.13
2023-02-14T10:06:49.247Z,22.02
2023-02-14T10:09:32.012Z,30.00
2023-02-14T10:12:01.505Z,29.17
2023-02-14T10:14:33.954Z,26.63
2023-02-14T10:17:18.307Z,21.38
2023-02-14T10:19:58.276Z,23.92
2023-02-14T10:22:38.516Z,23.08
2023-02-14T10:25:18.398Z,22.58
2023-02-14T10:27:46.762Z,26.20
2023-02-14T10:30:15.088Z,28.48
2023-02-14T10:33:03.513Z,26.83
2023-02-14T10:35:49.917Z,23.23
2023-02-14T10:38:42.533Z,31.40
2023-02-14T10:41:57.912Z,23.27
2023-02-14T10:44:42.030Z,19.75
2023-02-14T10:47:22.669Z,26.48
2023-02-14T10:50:19.461Z,25.15
2023-02-14T10:53:12.430Z,27.33
2023-02-14T10:55:56.982Z,30.73
2023-02-14T10:58:27.539Z,28.15
2023-02-14T11:01:13.888Z,25.15
2023-02-14T11:03:47.174Z,35.20
2023-02-14T11:06:14.050Z,26.00
2023-02-14T11:08:41.548Z,26.52
2023-02-14T11:11:15.961Z,27.33
2023-02-14T11:13:43.632Z,26.95
2023-02-14T11:16:18.199Z,23.42
2023-02-14T11:18:45.040Z,30.98
2023-02-14T11:21:17.629Z,29.23
2023-02-14T11:23:46.869Z,27.83
2023-02-14T11:26:32.522Z,22.80
2023-02-14T11:29:12.131Z,27.00
2023-02-14T11:31:41.896Z,28.08
2023-02-14T11:34:32.393Z,26.63
2023-02-14T11:37:00.251Z,25.80
2023-02-14T11:39:35.706Z,21.60
2023-02-14T11:42:04.897Z,27.38
2023-02-14T11:44:33.228Z,26.35
2023-02-14T11:47:19.512Z,22.42
2023-02-14T11:49:58.337Z,23.73
2023-02-14T11:52:28.957Z,33.53
2023-02-14T11:55:00.454Z,27.95
2023-02-14T11:57:38.144Z,29.50
2023-02-14T12:00:16.839Z,24.20
2023-02-14T12:02:49.803Z,20.50
2023-02-14T12:05:16.741Z,24.95
2023-02-14T12:07:45.676Z,25.27
2023-02-14T12:10:18.110Z,26.00
2023-02-14T12:13:24.472Z,25.25
2023-02-14T12:15:54.164Z,21.05
2023-02-14T12:18:54.285Z,30.77
2023-02-14T12:21:43.018Z,22.38
2023-02-14T12:24:31.858Z,22.25
2023-02-14T12:27:04.627Z,23.73
2023-02-14T12:29:48.294Z,21.98
2023-02-14T12:32:25.295Z,25.63
2023-02-14T12:35:02.130Z,23.67
2023-02-14T12:37:40.951Z,21.67
2023-02-14T12:40:36.580Z,24.85
2023-02-14T12:43:19.793Z,23.13
2023-02-14T12:46:04.670Z,22.35
2023-02-14T12:49:17.336Z,28.92
2023-02-14T12:52:02.058Z,20.70
2023-02-14T12:57:16.651Z,32.30
2023-02-14T13:00:04.658Z,25.52
2023-02-14T13:02:50.392Z,25.42
2023-02-14T13:05:35.806Z,22.70
2023-02-14T13:08:11.458Z,21.58
2023-02-14T13:11:00.323Z,20.98
2023-02-14T13:14:17.664Z,25.98
2023-02-14T13:17:06.273Z,20.67
2023-02-14T13:19:51.866Z,22.75
2023-02-14T13:22:24.071Z,25.05
2023-02-14T13:24:56.900Z,26.38
2023-02-14T13:27:29.964Z,25.10
2023-02-14T13:30:01.422Z,22.10
2023-02-14T13:32:42.237Z,22.30
2023-02-14T13:35:16.938Z,25.33
2023-02-14T13:37:52.226Z,30.20
2023-02-14T13:40:23.045Z,24.80
2023-02-14T13:42:51.965Z,21.25
2023-02-14T13:45:39.978Z,21.20
2023-02-14T13:48:27.428Z,22.23
2023-02-14T13:51:01.960Z,25.70
2023-02-14T13:53:35.210Z,23.20
2023-02-14T13:56:15.542Z,25.05
2023-02-14T13:59:00.599Z,28.20
2023-02-14T14:01:48.479Z,29.75
2023-02-14T14:04:33.448Z,24.83
2023-02-14T14:07:03.738Z,20.77
2023-02-14T14:09:42.947Z,26.08
2023-02-14T14:12:28.352Z,22.75
2023-02-14T14:15:08.102Z,24.35
2023-02-14T14:17:45.897Z,21.55
2023-02-14T14:20:21.871Z,21.27
2023-02-14T14:22:57.206Z,23.40
2023-02-14T14:25:37.439Z,26.42
2023-02-14T14:28:26.751Z,30.00
2023-02-14T14:30:54.034Z,28.85
2023-02-14T14:33:27.624Z,22.80
2023-02-14T14:36:08.358Z,24.73
2023-02-14T14:38:49.550Z,27.42
2023-02-14T14:41:16.937Z,26.20
2023-02-14T14:43:44.065Z,20.23
2023-02-14T14:46:15.862Z,18.67
2023-02-14T14:48:51.534Z,21.42
2023-02-14T14:51:32.058Z,20.95
2023-02-14T14:53:59.658Z,24.85
2023-02-14T14:56:38.175Z,25.23
2023-02-14T14:59:35.227Z,21.25
2023-02-14T15:02:30.362Z,24.90
2023-02-14T15:07:33.148Z,29.45
2023-02-14T15:10:00.507Z,22.83
2023-02-14T15:12:46.902Z,21.83
2023-02-14T15:15:17.132Z,25.83
2023-02-14T15:17:46.557Z,24.13
2023-02-14T15:20:22.454Z,27.92
2023-02-14T15:22:52.030Z,21.58
2023-02-14T15:25:38.277Z,28.10
2023-02-14T15:28:05.205Z,22.10
2023-02-14T15:30:37.827Z,25.73
2023-02-14T15:33:06.726Z,25.92
2023-02-14T15:35:36.474Z,25.20
2023-02-14T15:38:07.069Z,22.23
2023-02-14T15:40:35.715Z,27.58
2023-02-14T15:43:18.106Z,27.67
2023-02-14T15:45:51.075Z,27.00
2023-02-14T15:48:29.817Z,29.20
2023-02-14T15:50:59.975Z,20.15
2023-02-14T15:54:07.742Z,23.83
2023-02-14T15:56:46.808Z,24.45
2023-02-14T15:59:21.133Z,27.40
2023-02-14T16:01:54.644Z,23.20
2023-02-14T16:04:39.817Z,27.30
2023-02-14T16:07:16.608Z,27.83
2023-02-14T16:09:44.639Z,28.08
2023-02-14T16:12:35.533Z,33.63
2023-02-14T16:15:17.692Z,28.92
2023-02-14T16:17:45.350Z,32.05
2023-02-14T16:20:45.336Z,39.47
2023-02-14T16:23:27.694Z,40.85
2023-02-14T16:25:57.392Z,30.73
2023-02-14T16:28:28.412Z,32.50
2023-02-14T16:30:57.551Z,26.60
2023-02-14T16:33:30.693Z,33.90
2023-02-14T16:36:06.640Z,22.40
2023-02-14T16:38:41.336Z,26.30
2023-02-14T16:41:24.229Z,27.23
2023-02-14T16:43:51.616Z,26.65
2023-02-14T16:46:22.846Z,26.23
2023-02-14T16:48:52.339Z,24.58
2023-02-14T16:51:24.728Z,23.92
2023-02-14T16:53:51.784Z,24.05
2023-02-14T16:56:32.937Z,26.00
2023-02-14T16:59:00.235Z,23.20
2023-02-14T17:01:27.167Z,26.42
2023-02-14T17:03:54.101Z,23.85
2023-02-14T17:06:24.689Z,22.00
2023-02-14T17:08:52.893Z,26.83
2023-02-14T17:11:21.282Z,29.38
2023-02-14T17:13:48.980Z,26.52
2023-02-14T17:16:17.185Z,26.05
2023-02-14T17:18:51.692Z,23.88
2023-02-14T17:21:22.404Z,26.05
2023-02-14T17:23:49.759Z,25.80
2023-02-14T17:26:18.457Z,31.75
2023-02-14T17:28:46.467Z,30.65
2023-02-14T17:31:14.355Z,25.60
2023-02-14T17:33:41.381Z,24.52
2023-02-14T17:36:12.101Z,28.85
2023-02-14T17:38:40.365Z,23.88
2023-02-14T17:41:15.302Z,26.55
2023-02-14T17:43:43.051Z,29.15
2023-02-14T17:46:10.073Z,30.92
2023-02-14T17:48:36.882Z,29.40
2023-02-14T17:51:09.193Z,31.10
2023-02-14T17:53:36.570Z,24.10
2023-02-14T17:56:09.286Z,34.50
2023-02-14T17:58:36.804Z,28.88
2023-02-14T18:01:09.046Z,33.97
2023-02-14T18:03:36.342Z,32.35
2023-02-14T18:06:04.211Z,31.27
2023-02-14T18:08:34.003Z,25.58
2023-02-14T18:11:05.376Z,30.00
2023-02-14T18:13:32.396Z,27.50
2023-02-14T18:16:03.318Z,30.02
2023-02-14T18:18:30.603Z,32.13
2023-02-14T18:21:00.104Z,29.83
2023-02-14T18:23:27.749Z,28.50
2023-02-14T18:26:01.125Z,27.73
2023-02-14T18:28:28.476Z,30.17
2023-02-14T18:30:57.958Z,26.40
2023-02-14T18:33:25.665Z,34.35
2023-02-14T18:35:52.733Z,33.17
2023-02-14T18:38:19.742Z,33.38
2023-02-14T18:40:46.862Z,27.58
2023-02-14T18:43:13.800Z,28.75
2023-02-14T18:45:41.052Z,27.75
2023-02-14T18:48:09.114Z,30.25
2023-02-14T18:50:36.289Z,30.83
2023-02-14T18:53:03.298Z,27.38
2023-02-14T18:55:30.160Z,31.17
2023-02-14T18:57:57.108Z,30.08
2023-02-14T19:00:24.947Z,27.85
2023-02-14T19:02:52.038Z,31.38
2023-02-14T19:05:19.093Z,31.70
2023-02-14T19:07:46.200Z,33.67
2023-02-14T19:10:13.112Z,31.30
2023-02-14T19:12:40.026Z,26.77
2023-02-14T19:15:07.688Z,31.25
2023-02-14T19:17:34.929Z,37.15
2023-02-14T19:20:05.446Z,30.55
2023-02-14T19:22:36.287Z,33.47
2023-02-14T19:25:03.151Z,35.67
2023-02-14T19:27:30.071Z,39.17
2023-02-14T19:29:57.059Z,31.15
2023-02-14T19:32:23.957Z,30.33
2023-02-14T19:34:51.391Z,33.28
2023-02-14T19:37:18.366Z,38.95
2023-02-14T19:39:45.417Z,30.58
2023-02-14T19:42:12.483Z,36.58
2023-02-14T19:44:40.348Z,37.65
2023-02-14T19:47:23.391Z,28.35
2023-02-14T19:49:53.978Z,40.85
2023-02-14T19:52:27.841Z,40.45
2023-02-14T19:54:57.979Z,29.80
2023-02-14T19:57:25.259Z,31.83
2023-02-14T19:59:52.105Z,36.45
2023-02-14T20:02:19.974Z,28.85
2023-02-14T20:04:46.961Z,26.85
2023-02-14T20:07:13.901Z,37.80
2023-02-14T20:09:40.760Z,40.78
2023-02-14T20:12:07.768Z,41.08
2023-02-14T20:14:50.280Z,37.33
2023-02-14T20:17:18.852Z,35.70
2023-02-14T20:19:45.727Z,35.92
2023-02-14T20:22:12.724Z,36.97
2023-02-14T20:24:39.575Z,31.20
2023-02-14T20:27:08.065Z,34.17
2023-02-14T20:29:35.049Z,32.10
2023-02-14T20:32:05.011Z,47.78
2023-02-14T20:34:32.054Z,36.00
2023-02-14T20:37:00.205Z,31.65
2023-02-14T20:39:30.510Z,39.05
2023-02-14T20:41:57.534Z,29.40
2023-02-14T20:44:24.463Z,35.63
2023-02-14T20:46:54.172Z,34.33
2023-02-14T20:49:22.789Z,41.38
2023-02-14T20:51:50.766Z,37.53
2023-02-14T20:54:22.990Z,36.70
2023-02-14T20:56:51.027Z,40.15
2023-02-14T20:59:27.388Z,34.30
2023-02-14T21:01:56.464Z,38.00
2023-02-14T21:04:23.765Z,32.63
2023-02-14T21:06:50.643Z,38.08
2023-02-14T21:09:18.677Z,39.95
2023-02-14T21:11:45.610Z,41.90
2023-02-14T21:14:12.457Z,43.03
2023-02-14T21:16:39.333Z,33.80
2023-02-14T21:19:06.362Z,38.80
2023-02-14T21:21:36.460Z,37.05
2023-02-14T21:24:07.062Z,38.38
2023-02-14T21:26:34.188Z,36.20
2023-02-14T21:29:01.788Z,36.67
2023-02-14T21:31:28.771Z,36.35
2023-02-14T21:33:59.188Z,36.58
2023-02-14T21:36:29.341Z,39.75
2023-02-14T21:38:58.308Z,35.97
2023-02-14T21:41:28.791Z,33.92
2023-02-14T21:43:56.959Z,32.78
2023-02-14T21:46:30.851Z,35.92
2023-02-14T21:49:18.915Z,32.83
2023-02-14T21:51:46.436Z,36.65
2023-02-14T21:54:13.673Z,35.90
2023-02-14T21:56:44.398Z,36.05
2023-02-14T21:59:11.948Z,42.90
2023-02-14T22:01:41.197Z,37.88
2023-02-14T22:04:10.508Z,41.08
2023-02-14T22:06:38.997Z,42.38
2023-02-14T22:09:06.355Z,46.15
2023-02-14T22:11:34.048Z,41.65
2023-02-14T22:14:01.313Z,42.63
2023-02-14T22:16:28.387Z,43.63
2023-02-14T22:18:56.568Z,48.58
2023-02-14T22:21:25.849Z,38.72
2023-02-14T22:23:54.528Z,40.17
2023-02-14T22:26:27.404Z,42.83
2023-02-14T22:28:57.422Z,37.75
2023-02-14T22:31:25.831Z,36.95
2023-02-14T22:33:53.478Z,37.53
2023-02-14T22:36:20.544Z,38.55
2023-02-14T22:38:47.430Z,36.65
2023-02-14T22:41:16.858Z,38.08
2023-02-14T22:43:46.001Z,42.03
2023-02-14T22:46:24.536Z,42.58
2023-02-14T22:48:52.516Z,40.40
2023-02-14T22:51:31.569Z,36.65
2023-02-14T22:54:04.386Z,30.90
2023-02-14T22:56:42.549Z,40.83
2023-02-14T22:59:16.905Z,39.00
2023-02-14T23:01:44.344Z,35.45
2023-02-14T23:04:11.684Z,37.58
2023-02-14T23:06:39.001Z,44.10
2023-02-14T23:09:08.297Z,43.08
2023-02-14T23:11:36.998Z,40.97
2023-02-14T23:14:22.912Z,39.28
2023-02-14T23:17:08.786Z,35.40
2023-02-14T23:19:55.641Z,37.83
2023-02-14T23:22:22.492Z,40.92
2023-02-14T23:24:51.569Z,35.67
2023-02-14T23:27:20.962Z,35.65
2023-02-14T23:29:48.208Z,43.72
2023-02-14T23:32:15.760Z,48.05
2023-02-14T23:34:44.166Z,47.05
2023-02-14T23:37:12.234Z,39.30
2023-02-14T23:39:39.436Z,48.35
2023-02-14T23:42:08.730Z,42.22
2023-02-14T23:44:36.267Z,44.72
2023-02-14T23:47:05.587Z,38.42
2023-02-14T23:49:34.192Z,43.30
2023-02-14T23:52:02.179Z,45.65
2023-02-14T23:54:29.068Z,45.35
2023-02-14T23:56:57.621Z,44.47
2023-02-14T23:59:24.956Z,42.95
